Time;durP1;ratioP1;P1;durP2;ratioP2;P2;SDS_P1;SDS_P2;PMS_P1;PMS_P2;Temp;Humidity;BMP_temperature;BMP_pressure;BME280_temperature;BME280_humidity;BME280_pressure;Samples;Min_cycle;Max_cycle;Signal;HPM_P1;HPM_P2
2021/10/31 00:01:17;;;;;;;30.77;13.70;;;;;;;;;;4986710;28;20054;-66
2021/10/31 00:03:44;;;;;;;36.45;17.33;;;;;;;;;;4993329;28;20409;-67
2021/10/31 00:06:10;;;;;;;35.40;15.23;;;;;;;;;;4983713;28;20041;-66
2021/10/31 00:08:37;;;;;;;24.70;12.68;;;;;;;;;;4992464;28;20060;-66
2021/10/31 00:11:03;;;;;;;24.58;12.00;;;;;;;;;;4985367;28;20060;-67
2021/10/31 00:13:30;;;;;;;21.38;11.93;;;;;;;;;;4988672;28;20053;-66
2021/10/31 00:15:57;;;;;;;22.98;10.80;;;;;;;;;;4980911;28;20060;-68
2021/10/31 00:18:23;;;;;;;20.58;10.43;;;;;;;;;;4995299;28;20069;-68
2021/10/31 00:20:49;;;;;;;22.98;10.20;;;;;;;;;;4997818;28;20458;-68
2021/10/31 00:23:16;;;;;;;17.20;8.05;;;;;;;;;;4986939;28;20448;-68
2021/10/31 00:25:42;;;;;;;16.55;9.77;;;;;;;;;;4995962;28;20061;-68
2021/10/31 00:28:09;;;;;;;24.27;9.95;;;;;;;;;;4981668;28;20054;-68
2021/10/31 00:30:35;;;;;;;39.40;10.68;;;;;;;;;;4991390;28;20065;-67
2021/10/31 00:33:01;;;;;;;25.80;9.48;;;;;;;;;;4986425;28;20476;-67
2021/10/31 00:35:28;;;;;;;21.33;9.55;;;;;;;;;;4992689;28;20050;-68
2021/10/31 00:37:54;;;;;;;22.27;9.23;;;;;;;;;;4995575;28;20379;-68
2021/10/31 00:40:23;;;;;;;16.00;8.25;;;;;;;;;;4983569;28;20072;-68
2021/10/31 00:42:49;;;;;;;17.67;8.35;;;;;;;;;;4985793;28;20282;-67
2021/10/31 00:45:16;;;;;;;16.77;9.10;;;;;;;;;;4986494;28;20597;-68
2021/10/31 00:47:42;;;;;;;20.45;10.07;;;;;;;;;;4994048;28;20057;-68
2021/10/31 00:50:09;;;;;;;25.77;9.95;;;;;;;;;;4992262;28;20046;-68
2021/10/31 00:52:36;;;;;;;13.90;7.63;;;;;;;;;;4987878;28;20227;-67
2021/10/31 00:55:03;;;;;;;16.77;9.55;;;;;;;;;;4990004;28;20388;-67
2021/10/31 00:57:30;;;;;;;18.05;10.10;;;;;;;;;;4981381;28;20046;-67
2021/10/31 00:59:57;;;;;;;21.27;9.65;;;;;;;;;;4992843;28;20575;-67
2021/10/31 01:02:24;;;;;;;28.13;10.00;;;;;;;;;;4988006;28;20056;-67
2021/10/31 01:04:53;;;;;;;18.15;9.38;;;;;;;;;;4997783;28;20115;-67
2021/10/31 01:07:30;;;;;;;19.90;8.63;;;;;;;;;;4986732;28;20049;-67
2021/10/31 01:10:03;;;;;;;20.40;9.93;;;;;;;;;;4974598;28;20355;-67
2021/10/31 01:12:35;;;;;;;20.77;8.65;;;;;;;;;;4994153;28;20053;-67
2021/10/31 01:15:08;;;;;;;18.80;9.07;;;;;;;;;;4989578;28;20184;-67
2021/10/31 01:17:49;;;;;;;23.00;9.18;;;;;;;;;;4992719;28;20065;-67
2021/10/31 01:20:34;;;;;;;16.20;8.30;;;;;;;;;;4988203;28;20041;-68
2021/10/31 01:23:17;;;;;;;18.92;8.40;;;;;;;;;;4975690;28;20054;-67
2021/10/31 01:25:56;;;;;;;22.75;9.25;;;;;;;;;;4974042;28;20053;-67
2021/10/31 01:28:25;;;;;;;16.20;8.00;;;;;;;;;;4993474;28;20050;-67
2021/10/31 01:31:08;;;;;;;16.98;8.55;;;;;;;;;;4988155;28;20050;-67
2021/10/31 01:33:43;;;;;;;19.42;9.73;;;;;;;;;;4992320;28;20042;-67
2021/10/31 01:36:27;;;;;;;21.38;9.68;;;;;;;;;;4985018;28;20454;-67
2021/10/31 01:39:22;;;;;;;21.95;9.60;;;;;;;;;;4988826;28;20084;-67
2021/10/31 01:42:04;;;;;;;18.40;10.10;;;;;;;;;;4926159;28;20063;-67
2021/10/31 01:44:33;;;;;;;18.45;9.48;;;;;;;;;;4993847;28;20050;-67
2021/10/31 01:47:08;;;;;;;17.02;9.27;;;;;;;;;;4987796;28;20057;-67
2021/10/31 01:49:41;;;;;;;26.23;9.77;;;;;;;;;;4993943;28;20050;-67
2021/10/31 01:52:16;;;;;;;23.92;10.50;;;;;;;;;;4987692;28;20050;-67
2021/10/31 01:54:52;;;;;;;26.70;10.80;;;;;;;;;;4982462;28;20968;-67
2021/10/31 01:57:21;;;;;;;25.65;10.48;;;;;;;;;;4994342;28;20426;-67
2021/10/31 01:59:49;;;;;;;21.50;9.77;;;;;;;;;;4984004;28;20061;-67
2021/10/31 02:02:17;;;;;;;22.08;9.20;;;;;;;;;;4993476;28;20061;-67
2021/10/31 02:04:47;;;;;;;20.00;9.32;;;;;;;;;;4983863;28;20076;-67
2021/10/31 02:07:17;;;;;;;19.13;9.48;;;;;;;;;;4989911;28;20069;-68
2021/10/31 02:09:43;;;;;;;24.42;8.57;;;;;;;;;;4992668;28;20042;-67
2021/10/31 02:12:14;;;;;;;17.02;8.73;;;;;;;;;;4986608;28;20057;-66
2021/10/31 02:14:40;;;;;;;18.10;8.70;;;;;;;;;;4995216;28;20045;-67
2021/10/31 02:17:07;;;;;;;17.77;8.13;;;;;;;;;;4985012;28;20061;-67
2021/10/31 02:19:41;;;;;;;16.75;9.00;;;;;;;;;;4987231;28;20133;-67
2021/10/31 02:22:26;;;;;;;18.88;8.52;;;;;;;;;;4980663;28;20046;-67
2021/10/31 02:24:52;;;;;;;21.70;8.73;;;;;;;;;;4993421;28;20050;-67
2021/10/31 02:27:20;;;;;;;18.17;8.73;;;;;;;;;;4986063;28;20053;-68
2021/10/31 02:29:51;;;;;;;15.43;8.32;;;;;;;;;;4994016;28;20049;-67
2021/10/31 02:32:18;;;;;;;13.85;7.72;;;;;;;;;;4994404;28;20061;-67
2021/10/31 02:34:44;;;;;;;23.08;8.57;;;;;;;;;;4976421;28;20320;-68
2021/10/31 02:37:11;;;;;;;18.15;8.65;;;;;;;;;;4989274;28;20466;-67
2021/10/31 02:39:37;;;;;;;18.92;8.82;;;;;;;;;;4985052;28;20042;-67
2021/10/31 02:42:04;;;;;;;20.58;8.35;;;;;;;;;;4992409;28;20057;-67
2021/10/31 02:44:31;;;;;;;21.15;8.93;;;;;;;;;;4986585;28;20054;-67
2021/10/31 02:46:57;;;;;;;22.70;8.43;;;;;;;;;;4988217;28;20064;-68
2021/10/31 02:49:24;;;;;;;19.65;9.60;;;;;;;;;;4988618;28;20558;-67
2021/10/31 02:52:23;;;;;;;24.42;9.07;;;;;;;;;;4985895;28;20816;-66
2021/10/31 02:54:55;;;;;;;17.13;8.07;;;;;;;;;;4965482;28;21456;-67
2021/10/31 02:57:41;;;;;;;13.75;7.57;;;;;;;;;;4986728;28;20042;-67
2021/10/31 03:00:09;;;;;;;15.55;7.85;;;;;;;;;;4989574;28;20147;-67
2021/10/31 03:02:36;;;;;;;27.95;8.52;;;;;;;;;;4978707;28;20422;-67
2021/10/31 03:05:02;;;;;;;18.88;8.15;;;;;;;;;;4992807;28;20041;-67
2021/10/31 03:07:29;;;;;;;17.20;8.93;;;;;;;;;;4985382;28;20050;-67
2021/10/31 03:09:56;;;;;;;17.38;8.40;;;;;;;;;;4993345;28;20045;-67
2021/10/31 03:12:22;;;;;;;16.90;7.40;;;;;;;;;;4994783;28;20070;-67
2021/10/31 03:14:48;;;;;;;16.63;8.63;;;;;;;;;;4983695;28;20534;-67
2021/10/31 03:17:16;;;;;;;18.38;8.15;;;;;;;;;;4987515;28;20054;-67
2021/10/31 03:19:43;;;;;;;18.13;8.43;;;;;;;;;;4984051;28;20088;-67
2021/10/31 03:22:09;;;;;;;20.33;8.70;;;;;;;;;;4995269;28;20050;-67
2021/10/31 03:24:36;;;;;;;12.60;6.63;;;;;;;;;;4985765;28;20550;-67
2021/10/31 03:27:02;;;;;;;18.63;8.25;;;;;;;;;;4991478;28;20050;-67
2021/10/31 03:29:29;;;;;;;16.67;8.18;;;;;;;;;;4988756;28;20057;-67
2021/10/31 03:31:55;;;;;;;20.48;8.57;;;;;;;;;;4982809;28;20052;-67
2021/10/31 03:34:22;;;;;;;18.17;8.48;;;;;;;;;;4995151;28;20046;-67
2021/10/31 03:36:48;;;;;;;16.85;8.45;;;;;;;;;;4987269;28;20058;-67
2021/10/31 03:39:15;;;;;;;15.43;8.18;;;;;;;;;;4993310;28;20054;-67
2021/10/31 03:41:41;;;;;;;15.27;8.70;;;;;;;;;;4968786;28;20526;-67
2021/10/31 03:44:08;;;;;;;17.35;8.95;;;;;;;;;;4989614;28;20053;-67
2021/10/31 03:46:34;;;;;;;17.92;8.48;;;;;;;;;;4989765;28;20541;-67
2021/10/31 03:49:00;;;;;;;18.25;9.23;;;;;;;;;;4987621;28;20186;-67
2021/10/31 03:51:27;;;;;;;15.88;8.63;;;;;;;;;;4998522;28;20080;-67
2021/10/31 03:53:53;;;;;;;18.27;9.35;;;;;;;;;;4991025;28;20058;-67
2021/10/31 03:56:19;;;;;;;20.48;9.63;;;;;;;;;;4997432;28;20060;-67
2021/10/31 03:58:46;;;;;;;20.40;9.23;;;;;;;;;;4983763;28;20338;-67
2021/10/31 04:01:12;;;;;;;16.10;8.82;;;;;;;;;;4995689;28;20058;-67
2021/10/31 04:03:38;;;;;;;17.98;9.07;;;;;;;;;;4998257;28;20495;-67
2021/10/31 04:06:05;;;;;;;23.83;9.60;;;;;;;;;;4991292;28;20454;-67
2021/10/31 04:08:31;;;;;;;21.67;9.73;;;;;;;;;;4998201;28;20046;-67
2021/10/31 04:10:57;;;;;;;21.52;9.20;;;;;;;;;;4986092;28;20458;-67
2021/10/31 04:13:24;;;;;;;18.35;9.88;;;;;;;;;;4992791;28;20538;-66
2021/10/31 04:15:51;;;;;;;18.73;9.82;;;;;;;;;;4991089;28;20061;-67
2021/10/31 04:18:17;;;;;;;24.33;10.13;;;;;;;;;;4997725;28;20057;-67
2021/10/31 04:20:43;;;;;;;19.92;10.13;;;;;;;;;;4997699;28;20509;-67
2021/10/31 04:23:10;;;;;;;22.92;10.60;;;;;;;;;;4991514;28;20049;-67
2021/10/31 04:25:36;;;;;;;21.98;10.82;;;;;;;;;;4992626;28;20168;-67
2021/10/31 04:28:03;;;;;;;18.20;10.20;;;;;;;;;;4985875;28;20046;-67
2021/10/31 04:30:29;;;;;;;19.77;9.52;;;;;;;;;;4998607;28;20077;-67
2021/10/31 04:32:55;;;;;;;17.30;9.35;;;;;;;;;;4989668;28;20050;-67
2021/10/31 04:35:22;;;;;;;22.10;10.00;;;;;;;;;;4996847;28;20073;-67
2021/10/31 04:37:49;;;;;;;17.65;9.63;;;;;;;;;;4997265;28;20415;-67
2021/10/31 04:40:18;;;;;;;20.80;10.65;;;;;;;;;;4985058;28;20598;-67
2021/10/31 04:42:44;;;;;;;18.77;9.27;;;;;;;;;;4990778;28;20544;-67
2021/10/31 04:45:10;;;;;;;17.05;7.95;;;;;;;;;;4988557;28;20053;-67
2021/10/31 04:47:37;;;;;;;18.52;9.90;;;;;;;;;;4996799;28;20050;-67
2021/10/31 04:50:03;;;;;;;20.85;10.57;;;;;;;;;;4994727;28;20249;-67
2021/10/31 04:52:31;;;;;;;22.05;11.25;;;;;;;;;;4986681;28;20046;-67
2021/10/31 04:54:58;;;;;;;20.83;9.63;;;;;;;;;;4989349;28;20053;-67
2021/10/31 04:57:25;;;;;;;22.23;10.50;;;;;;;;;;4989698;28;20515;-67
2021/10/31 04:59:51;;;;;;;17.98;9.65;;;;;;;;;;4992747;28;20042;-67
2021/10/31 05:02:17;;;;;;;19.98;10.25;;;;;;;;;;4986452;28;20057;-67
2021/10/31 05:04:44;;;;;;;19.75;9.75;;;;;;;;;;4996832;28;20141;-67
2021/10/31 05:07:11;;;;;;;24.67;9.45;;;;;;;;;;4987825;28;20068;-67
2021/10/31 05:09:37;;;;;;;23.13;9.90;;;;;;;;;;4989295;28;20145;-67
2021/10/31 05:12:03;;;;;;;20.38;9.68;;;;;;;;;;4996456;28;20045;-67
2021/10/31 05:14:30;;;;;;;20.58;10.35;;;;;;;;;;4991016;28;20058;-67
2021/10/31 05:16:57;;;;;;;18.15;9.65;;;;;;;;;;4998175;28;20048;-67
2021/10/31 05:19:23;;;;;;;16.20;9.82;;;;;;;;;;5004679;28;20046;-67
2021/10/31 05:21:49;;;;;;;19.27;10.45;;;;;;;;;;4996681;28;20056;-67
2021/10/31 05:24:15;;;;;;;14.60;8.43;;;;;;;;;;4992519;28;20046;-67
2021/10/31 05:26:42;;;;;;;19.70;10.60;;;;;;;;;;4990809;28;20137;-67
2021/10/31 05:29:08;;;;;;;21.90;11.60;;;;;;;;;;4995941;28;20502;-67
2021/10/31 05:31:34;;;;;;;21.67;12.25;;;;;;;;;;4988306;28;20050;-67
2021/10/31 05:34:01;;;;;;;22.70;10.93;;;;;;;;;;4993824;28;20054;-67
2021/10/31 05:36:27;;;;;;;21.05;10.93;;;;;;;;;;4980653;28;20068;-67
2021/10/31 05:38:53;;;;;;;24.27;11.48;;;;;;;;;;4994437;28;20053;-67
2021/10/31 05:41:20;;;;;;;23.17;11.55;;;;;;;;;;4993590;28;20465;-67
2021/10/31 05:43:46;;;;;;;22.25;11.73;;;;;;;;;;4991088;28;20057;-67
2021/10/31 05:46:12;;;;;;;20.70;9.77;;;;;;;;;;4995118;28;20069;-67
2021/10/31 05:48:39;;;;;;;18.48;10.05;;;;;;;;;;4983647;28;20045;-67
2021/10/31 05:51:05;;;;;;;19.63;10.75;;;;;;;;;;4989580;28;20501;-67
2021/10/31 05:53:32;;;;;;;20.08;10.63;;;;;;;;;;4984242;28;20050;-67
2021/10/31 05:55:58;;;;;;;21.38;11.38;;;;;;;;;;4994694;28;20464;-67
2021/10/31 05:58:24;;;;;;;21.65;12.07;;;;;;;;;;4995119;28;20045;-67
2021/10/31 06:00:52;;;;;;;24.02;11.60;;;;;;;;;;4984159;28;20139;-67
2021/10/31 06:03:20;;;;;;;18.10;10.43;;;;;;;;;;4989251;28;20120;-67
2021/10/31 06:05:47;;;;;;;20.73;11.07;;;;;;;;;;4982840;28;20049;-67
2021/10/31 06:08:15;;;;;;;22.00;12.50;;;;;;;;;;4991779;28;20423;-67
2021/10/31 06:10:42;;;;;;;22.95;11.80;;;;;;;;;;4986721;28;20053;-67
2021/10/31 06:13:09;;;;;;;18.17;10.68;;;;;;;;;;4994441;28;20046;-67
2021/10/31 06:15:35;;;;;;;20.23;12.13;;;;;;;;;;4994554;28;20133;-67
2021/10/31 06:18:02;;;;;;;21.35;11.63;;;;;;;;;;4980395;28;20054;-67
2021/10/31 06:20:28;;;;;;;26.92;11.60;;;;;;;;;;4989939;28;20054;-67
2021/10/31 06:22:54;;;;;;;20.15;11.52;;;;;;;;;;4987645;28;20073;-67
2021/10/31 06:25:21;;;;;;;22.17;11.20;;;;;;;;;;4994012;28;20054;-67
2021/10/31 06:27:47;;;;;;;19.02;10.75;;;;;;;;;;4986013;28;20054;-67
2021/10/31 06:30:13;;;;;;;23.77;11.30;;;;;;;;;;4992420;28;20058;-67
2021/10/31 06:32:41;;;;;;;23.73;13.05;;;;;;;;;;4986567;28;20050;-67
2021/10/31 06:35:08;;;;;;;25.33;11.98;;;;;;;;;;4985632;28;20050;-67
2021/10/31 06:37:34;;;;;;;22.90;11.93;;;;;;;;;;4993534;28;20053;-67
2021/10/31 06:40:00;;;;;;;20.77;11.73;;;;;;;;;;4988074;28;20064;-67
2021/10/31 06:42:28;;;;;;;19.15;12.38;;;;;;;;;;4993736;28;20090;-67
2021/10/31 06:44:55;;;;;;;21.63;11.18;;;;;;;;;;4981682;28;20421;-67
2021/10/31 06:47:23;;;;;;;19.85;12.18;;;;;;;;;;4989539;28;20593;-67
2021/10/31 06:49:50;;;;;;;24.83;11.13;;;;;;;;;;4992082;28;20046;-67
2021/10/31 06:52:16;;;;;;;20.80;12.07;;;;;;;;;;4985440;28;20046;-67
2021/10/31 06:54:42;;;;;;;25.25;12.48;;;;;;;;;;5002710;28;20495;-67
2021/10/31 06:57:09;;;;;;;22.02;11.77;;;;;;;;;;4987847;28;20056;-67
2021/10/31 06:59:35;;;;;;;21.63;12.50;;;;;;;;;;4985191;28;20050;-67
2021/10/31 07:02:02;;;;;;;20.33;11.73;;;;;;;;;;4980833;28;20061;-67
2021/10/31 07:04:30;;;;;;;17.92;9.43;;;;;;;;;;4994341;28;20061;-67
2021/10/31 07:06:56;;;;;;;23.80;11.73;;;;;;;;;;4994024;28;20450;-67
2021/10/31 07:09:22;;;;;;;18.75;11.45;;;;;;;;;;4985213;28;20053;-67
2021/10/31 07:11:49;;;;;;;20.35;10.50;;;;;;;;;;4993046;28;20998;-67
2021/10/31 07:14:15;;;;;;;20.30;11.73;;;;;;;;;;4980564;28;20046;-67
2021/10/31 07:16:41;;;;;;;20.08;11.48;;;;;;;;;;4989724;28;20049;-67
2021/10/31 07:19:08;;;;;;;18.30;10.98;;;;;;;;;;4985657;28;20320;-67
2021/10/31 07:21:34;;;;;;;23.85;10.55;;;;;;;;;;4992404;28;20061;-67
2021/10/31 07:24:01;;;;;;;17.00;10.48;;;;;;;;;;4994438;28;20049;-67
2021/10/31 07:26:27;;;;;;;19.20;11.63;;;;;;;;;;4987886;28;20525;-67
2021/10/31 07:28:53;;;;;;;14.52;9.23;;;;;;;;;;4993152;28;20053;-67
2021/10/31 07:31:21;;;;;;;22.60;11.48;;;;;;;;;;4993230;28;20644;-67
2021/10/31 07:33:48;;;;;;;21.23;10.95;;;;;;;;;;4997273;28;20487;-67
2021/10/31 07:36:14;;;;;;;17.13;8.90;;;;;;;;;;4991596;28;20054;-67
2021/10/31 07:38:42;;;;;;;14.07;9.05;;;;;;;;;;4999213;28;20049;-67
2021/10/31 07:41:09;;;;;;;17.48;10.93;;;;;;;;;;4996610;28;20534;-67
2021/10/31 07:43:36;;;;;;;15.32;9.70;;;;;;;;;;4987240;28;20422;-67
2021/10/31 07:46:03;;;;;;;15.82;9.50;;;;;;;;;;4998992;28;20057;-67
2021/10/31 07:48:29;;;;;;;14.48;8.95;;;;;;;;;;4993152;28;20423;-67
2021/10/31 07:50:55;;;;;;;16.40;9.98;;;;;;;;;;4998812;28;20402;-67
2021/10/31 07:53:22;;;;;;;17.17;9.38;;;;;;;;;;4988341;28;20046;-67
2021/10/31 07:55:52;;;;;;;14.00;8.30;;;;;;;;;;4993769;28;20648;-67
2021/10/31 07:58:21;;;;;;;21.75;9.43;;;;;;;;;;5000291;28;20054;-67
2021/10/31 08:00:49;;;;;;;14.20;9.10;;;;;;;;;;4989862;28;20046;-67
2021/10/31 08:03:16;;;;;;;17.70;9.20;;;;;;;;;;4997818;28;21374;-67
2021/10/31 08:05:43;;;;;;;17.15;9.05;;;;;;;;;;4993021;28;20062;-67
2021/10/31 08:08:10;;;;;;;12.43;8.00;;;;;;;;;;4995865;28;20050;-67
2021/10/31 08:10:37;;;;;;;16.88;9.40;;;;;;;;;;4986531;28;20054;-67
2021/10/31 08:13:03;;;;;;;15.43;8.82;;;;;;;;;;4998023;28;20058;-67
2021/10/31 08:15:29;;;;;;;15.80;8.88;;;;;;;;;;4999172;28;20098;-67
2021/10/31 08:17:56;;;;;;;17.60;8.45;;;;;;;;;;4990905;28;20525;-67
2021/10/31 08:20:23;;;;;;;11.38;6.53;;;;;;;;;;5000570;28;20402;-67
2021/10/31 08:22:50;;;;;;;12.55;6.90;;;;;;;;;;4988917;28;20323;-67
2021/10/31 08:25:16;;;;;;;14.32;8.63;;;;;;;;;;4996487;28;20049;-67
2021/10/31 08:27:42;;;;;;;17.10;9.18;;;;;;;;;;4999086;28;20057;-67
2021/10/31 08:30:09;;;;;;;13.77;9.10;;;;;;;;;;4991807;28;20066;-68
2021/10/31 08:32:43;;;;;;;16.30;7.93;;;;;;;;;;5000009;28;20050;-67
2021/10/31 08:35:10;;;;;;;15.93;9.30;;;;;;;;;;4990652;28;20708;-67
2021/10/31 08:37:36;;;;;;;13.75;8.45;;;;;;;;;;4989558;28;20495;-67
2021/10/31 08:40:02;;;;;;;14.07;7.20;;;;;;;;;;4990555;28;20518;-67
2021/10/31 08:42:29;;;;;;;11.88;7.45;;;;;;;;;;4997576;28;20061;-68
2021/10/31 08:44:56;;;;;;;12.32;6.78;;;;;;;;;;4993088;28;20415;-68
2021/10/31 08:47:22;;;;;;;12.88;7.75;;;;;;;;;;4987701;28;20042;-68
2021/10/31 08:49:49;;;;;;;19.02;8.20;;;;;;;;;;4991963;28;20528;-68
2021/10/31 08:52:15;;;;;;;12.35;7.25;;;;;;;;;;4982916;28;20131;-68
2021/10/31 08:54:41;;;;;;;15.68;8.13;;;;;;;;;;4991839;28;20042;-68
2021/10/31 08:57:08;;;;;;;11.07;6.93;;;;;;;;;;4987450;28;20431;-68
2021/10/31 08:59:35;;;;;;;13.05;7.82;;;;;;;;;;4993945;28;21495;-68
2021/10/31 09:02:01;;;;;;;11.52;6.75;;;;;;;;;;4992793;28;20522;-68
2021/10/31 09:04:29;;;;;;;12.30;6.53;;;;;;;;;;4980868;28;20173;-68
2021/10/31 09:06:55;;;;;;;10.50;7.03;;;;;;;;;;4988616;28;20054;-68
2021/10/31 09:09:24;;;;;;;13.52;6.88;;;;;;;;;;4985154;28;20058;-68
2021/10/31 09:11:50;;;;;;;12.48;7.45;;;;;;;;;;4987924;28;20053;-68
2021/10/31 09:14:16;;;;;;;13.52;6.95;;;;;;;;;;4988355;28;20431;-68
2021/10/31 09:16:43;;;;;;;13.48;6.45;;;;;;;;;;4995861;28;20053;-68
2021/10/31 09:19:09;;;;;;;11.73;7.25;;;;;;;;;;4986695;28;20568;-69
2021/10/31 09:21:36;;;;;;;11.77;6.75;;;;;;;;;;4987230;28;20506;-68
2021/10/31 09:24:02;;;;;;;12.57;6.20;;;;;;;;;;4995428;28;20061;-68
2021/10/31 09:26:29;;;;;;;13.52;6.40;;;;;;;;;;4988049;28;20065;-68
2021/10/31 09:28:56;;;;;;;9.02;5.90;;;;;;;;;;4993895;28;20586;-68
2021/10/31 09:31:22;;;;;;;10.18;5.13;;;;;;;;;;4983276;28;20487;-68
2021/10/31 09:33:49;;;;;;;9.52;5.18;;;;;;;;;;4989844;28;20732;-68
2021/10/31 09:36:15;;;;;;;8.93;5.63;;;;;;;;;;4995297;28;20468;-68
2021/10/31 09:38:42;;;;;;;8.85;5.10;;;;;;;;;;4986316;28;20048;-68
2021/10/31 09:41:12;;;;;;;9.68;5.78;;;;;;;;;;4994119;28;20046;-68
2021/10/31 09:43:47;;;;;;;9.07;5.88;;;;;;;;;;4987387;28;20463;-68
2021/10/31 09:46:13;;;;;;;8.38;5.63;;;;;;;;;;4987074;28;20514;-68
2021/10/31 09:48:40;;;;;;;13.45;5.10;;;;;;;;;;4981806;28;20856;-68
2021/10/31 09:51:06;;;;;;;12.27;5.97;;;;;;;;;;4994304;28;20107;-69
2021/10/31 09:53:32;;;;;;;10.75;5.53;;;;;;;;;;4981939;28;20050;-68
2021/10/31 09:55:59;;;;;;;11.80;5.63;;;;;;;;;;4980909;28;20054;-68
2021/10/31 09:58:32;;;;;;;8.15;4.80;;;;;;;;;;4988503;28;20042;-67
2021/10/31 10:00:59;;;;;;;9.77;5.82;;;;;;;;;;4978426;28;20065;-68
2021/10/31 10:03:35;;;;;;;8.77;5.50;;;;;;;;;;4989756;28;20580;-68
2021/10/31 10:06:38;;;;;;;13.93;5.22;;;;;;;;;;4986438;28;20145;-67
2021/10/31 10:09:06;;;;;;;8.90;4.13;;;;;;;;;;4913880;29;20059;-67
2021/10/31 10:11:33;;;;;;;7.45;4.47;;;;;;;;;;4908664;29;20043;-67
2021/10/31 10:14:26;;;;;;;10.13;5.68;;;;;;;;;;4913272;29;20058;-67
2021/10/31 10:16:58;;;;;;;8.25;4.90;;;;;;;;;;4903312;29;20052;-67
2021/10/31 10:19:26;;;;;;;9.63;5.07;;;;;;;;;;4915839;29;20066;-66
2021/10/31 10:22:04;;;;;;;9.95;4.93;;;;;;;;;;4913491;29;20126;-67
2021/10/31 10:24:32;;;;;;;7.53;4.38;;;;;;;;;;4907152;29;20436;-67
2021/10/31 10:27:00;;;;;;;10.75;4.72;;;;;;;;;;4909639;29;20047;-67
2021/10/31 10:29:30;;;;;;;8.07;4.07;;;;;;;;;;4889124;29;20134;-67
2021/10/31 10:31:58;;;;;;;7.50;4.22;;;;;;;;;;4913362;29;20058;-67
2021/10/31 10:34:35;;;;;;;8.75;3.80;;;;;;;;;;4906761;29;20558;-67
2021/10/31 10:37:06;;;;;;;9.35;4.18;;;;;;;;;;4913597;29;21092;-67
2021/10/31 10:39:33;;;;;;;7.87;4.37;;;;;;;;;;4899286;29;20056;-67
2021/10/31 10:42:00;;;;;;;5.10;2.90;;;;;;;;;;4912028;28;20063;-68
2021/10/31 10:44:38;;;;;;;8.40;3.25;;;;;;;;;;4994049;28;20359;-67
2021/10/31 10:47:09;;;;;;;6.30;3.50;;;;;;;;;;4984181;28;20680;-67
2021/10/31 10:49:37;;;;;;;10.23;3.38;;;;;;;;;;4991532;28;20488;-67
2021/10/31 10:52:08;;;;;;;5.45;3.10;;;;;;;;;;4981303;28;20454;-67
2021/10/31 10:54:35;;;;;;;6.68;3.33;;;;;;;;;;4987905;28;20565;-68
2021/10/31 10:57:02;;;;;;;12.30;3.60;;;;;;;;;;4984922;28;20049;-68
2021/10/31 10:59:29;;;;;;;5.03;2.75;;;;;;;;;;4991121;28;20680;-68
2021/10/31 11:02:06;;;;;;;4.65;2.67;;;;;;;;;;4988826;28;20064;-68
2021/10/31 11:04:32;;;;;;;5.68;2.55;;;;;;;;;;4989779;28;20426;-68
2021/10/31 11:06:59;;;;;;;5.63;2.30;;;;;;;;;;4988225;28;20050;-68
2021/10/31 11:09:25;;;;;;;4.78;2.40;;;;;;;;;;4973975;28;20630;-68
2021/10/31 11:11:52;;;;;;;4.10;2.28;;;;;;;;;;4991552;28;20651;-68
2021/10/31 11:14:18;;;;;;;8.25;2.40;;;;;;;;;;4984531;28;20600;-68
2021/10/31 11:16:45;;;;;;;7.55;2.65;;;;;;;;;;4992701;28;20054;-68
2021/10/31 11:19:11;;;;;;;6.38;2.17;;;;;;;;;;4973750;28;20565;-67
2021/10/31 11:21:37;;;;;;;6.82;2.40;;;;;;;;;;4975468;28;20061;-67
2021/10/31 11:24:06;;;;;;;5.35;2.38;;;;;;;;;;4982446;28;20054;-68
2021/10/31 11:26:35;;;;;;;3.78;1.80;;;;;;;;;;4973664;28;20054;-68
2021/10/31 11:29:02;;;;;;;6.32;2.35;;;;;;;;;;4983048;28;20411;-68
2021/10/31 11:31:28;;;;;;;5.43;2.58;;;;;;;;;;4975229;28;20069;-68
2021/10/31 11:33:54;;;;;;;5.03;2.10;;;;;;;;;;4970685;28;20054;-68
2021/10/31 11:36:21;;;;;;;3.75;2.45;;;;;;;;;;4971814;28;20563;-68
2021/10/31 11:38:48;;;;;;;5.68;2.10;;;;;;;;;;4982218;28;20063;-69
2021/10/31 11:41:15;;;;;;;3.65;2.50;;;;;;;;;;4981254;28;20042;-68
2021/10/31 11:43:48;;;;;;;5.90;2.22;;;;;;;;;;4975634;28;20062;-68
2021/10/31 11:46:14;;;;;;;5.57;2.30;;;;;;;;;;4978561;28;20246;-68
2021/10/31 11:48:41;;;;;;;5.32;2.83;;;;;;;;;;4971651;28;20058;-69
2021/10/31 11:51:13;;;;;;;4.68;2.35;;;;;;;;;;4980039;28;20058;-68
2021/10/31 11:53:42;;;;;;;4.18;2.15;;;;;;;;;;4975386;28;20066;-68
2021/10/31 11:56:14;;;;;;;6.05;2.25;;;;;;;;;;4986384;28;20050;-68
2021/10/31 11:58:45;;;;;;;5.82;2.42;;;;;;;;;;4980269;28;20057;-68
2021/10/31 12:01:14;;;;;;;5.38;2.20;;;;;;;;;;4969066;28;20047;-68
2021/10/31 12:03:51;;;;;;;8.15;2.67;;;;;;;;;;4976595;28;20384;-68
2021/10/31 12:06:24;;;;;;;4.65;2.20;;;;;;;;;;4976252;28;20050;-68
2021/10/31 12:08:58;;;;;;;8.00;2.70;;;;;;;;;;4981530;28;20065;-68
2021/10/31 12:11:44;;;;;;;4.75;2.50;;;;;;;;;;4972858;28;20150;-67
2021/10/31 12:14:12;;;;;;;6.28;2.60;;;;;;;;;;4976060;28;20058;-68
2021/10/31 12:16:55;;;;;;;4.23;2.17;;;;;;;;;;4974299;28;20065;-68
2021/10/31 12:19:38;;;;;;;5.60;2.42;;;;;;;;;;4983087;28;20157;-68
2021/10/31 12:22:13;;;;;;;12.80;4.10;;;;;;;;;;4978323;28;20061;-68
2021/10/31 12:24:41;;;;;;;6.80;2.55;;;;;;;;;;4983780;28;20069;-68
2021/10/31 12:27:09;;;;;;;3.53;2.30;;;;;;;;;;4984145;28;20559;-68
2021/10/31 12:29:36;;;;;;;8.82;2.50;;;;;;;;;;4970430;28;20063;-68
2021/10/31 12:32:04;;;;;;;3.30;1.98;;;;;;;;;;4978155;28;20062;-68
2021/10/31 12:34:38;;;;;;;7.85;2.50;;;;;;;;;;4974376;28;20050;-68
2021/10/31 12:37:23;;;;;;;4.57;2.40;;;;;;;;;;4957516;28;20047;-68
2021/10/31 12:39:58;;;;;;;4.82;2.67;;;;;;;;;;4971579;28;20047;-68
2021/10/31 12:42:32;;;;;;;4.85;2.13;;;;;;;;;;4979824;28;20076;-68
2021/10/31 12:45:01;;;;;;;8.20;2.10;;;;;;;;;;4971979;28;20498;-68
2021/10/31 12:47:42;;;;;;;5.88;2.25;;;;;;;;;;4983836;28;20076;-68
2021/10/31 12:50:10;;;;;;;3.10;1.90;;;;;;;;;;4984208;28;20478;-68
2021/10/31 12:52:37;;;;;;;4.43;2.13;;;;;;;;;;4975031;28;20499;-68
2021/10/31 12:55:07;;;;;;;4.70;2.05;;;;;;;;;;4983677;28;20486;-68
2021/10/31 12:57:34;;;;;;;5.93;1.98;;;;;;;;;;4971286;28;20051;-68
2021/10/31 13:00:04;;;;;;;4.35;1.75;;;;;;;;;;4977549;28;20050;-68
2021/10/31 13:02:31;;;;;;;4.63;2.10;;;;;;;;;;4976004;28;20051;-68
2021/10/31 13:05:03;;;;;;;4.23;2.20;;;;;;;;;;4982911;28;20081;-68
2021/10/31 13:07:38;;;;;;;6.57;2.53;;;;;;;;;;4976489;28;20054;-68
2021/10/31 13:10:15;;;;;;;6.53;3.10;;;;;;;;;;4977954;28;20297;-68
2021/10/31 13:12:42;;;;;;;3.30;1.92;;;;;;;;;;4966577;28;20165;-68
2021/10/31 13:15:10;;;;;;;5.63;1.90;;;;;;;;;;4955567;28;20409;-68
2021/10/31 13:17:38;;;;;;;4.38;1.95;;;;;;;;;;4982744;28;20072;-68
2021/10/31 13:20:10;;;;;;;4.18;1.90;;;;;;;;;;4975763;28;20157;-68
2021/10/31 13:22:38;;;;;;;6.40;2.30;;;;;;;;;;4975323;28;20241;-69
2021/10/31 13:25:04;;;;;;;4.68;2.22;;;;;;;;;;4971794;28;20538;-68
2021/10/31 13:27:31;;;;;;;5.50;2.38;;;;;;;;;;4979008;28;20054;-66
2021/10/31 13:29:57;;;;;;;10.30;2.92;;;;;;;;;;4982944;28;20062;-68
2021/10/31 13:32:27;;;;;;;7.85;2.65;;;;;;;;;;4975512;28;20141;-68
2021/10/31 13:34:54;;;;;;;5.55;2.80;;;;;;;;;;4983372;28;20042;-69
2021/10/31 13:37:22;;;;;;;9.98;3.33;;;;;;;;;;4974864;28;20170;-69
2021/10/31 13:40:08;;;;;;;8.82;3.13;;;;;;;;;;4975541;28;20050;-68
2021/10/31 13:42:36;;;;;;;5.75;2.88;;;;;;;;;;4974431;28;20050;-68
2021/10/31 13:45:03;;;;;;;6.90;3.10;;;;;;;;;;4983051;28;20046;-68
2021/10/31 13:47:39;;;;;;;7.78;3.40;;;;;;;;;;4981705;28;20058;-69
2021/10/31 13:50:07;;;;;;;7.47;3.15;;;;;;;;;;4968542;28;20495;-68
2021/10/31 13:52:33;;;;;;;6.07;3.77;;;;;;;;;;4973696;28;20050;-66
2021/10/31 13:55:03;;;;;;;4.75;3.03;;;;;;;;;;4973530;28;20050;-69
2021/10/31 13:57:30;;;;;;;7.93;3.33;;;;;;;;;;4982174;28;20054;-69
2021/10/31 13:59:57;;;;;;;9.85;3.05;;;;;;;;;;4972450;28;20057;-66
2021/10/31 14:02:24;;;;;;;5.88;3.22;;;;;;;;;;4983545;28;20050;-66
2021/10/31 14:05:12;;;;;;;7.82;3.20;;;;;;;;;;4976333;28;20050;-69
2021/10/31 14:07:40;;;;;;;5.10;3.05;;;;;;;;;;4968091;28;20061;-69
2021/10/31 14:10:07;;;;;;;9.23;3.58;;;;;;;;;;4983527;28;20138;-69
2021/10/31 14:12:33;;;;;;;6.85;3.22;;;;;;;;;;4974758;28;20533;-67
2021/10/31 14:15:12;;;;;;;7.53;3.70;;;;;;;;;;4983129;28;20050;-67
2021/10/31 14:17:40;;;;;;;6.55;3.08;;;;;;;;;;4973850;28;20054;-67
2021/10/31 14:20:12;;;;;;;6.05;3.33;;;;;;;;;;4975050;28;20471;-67
2021/10/31 14:22:49;;;;;;;6.50;4.15;;;;;;;;;;4973220;28;20542;-67
2021/10/31 14:25:20;;;;;;;8.43;3.78;;;;;;;;;;4982648;28;20057;-67
2021/10/31 14:27:48;;;;;;;11.63;3.95;;;;;;;;;;4976487;28;20105;-67
2021/10/31 14:30:27;;;;;;;8.23;3.90;;;;;;;;;;4982832;28;20058;-67
2021/10/31 14:32:55;;;;;;;10.25;4.20;;;;;;;;;;4980192;28;20073;-67
2021/10/31 14:35:23;;;;;;;5.95;3.83;;;;;;;;;;4971317;28;20503;-67
2021/10/31 14:38:06;;;;;;;6.25;3.55;;;;;;;;;;4982458;28;20053;-67
2021/10/31 14:40:52;;;;;;;8.68;4.10;;;;;;;;;;4972075;28;20061;-67